Time;durP1;ratioP1;P1;durP2;ratioP2;P2;SDS_P1;SDS_P2;PMS_P1;PMS_P2;Temp;Humidity;BMP_temperature;BMP_pressure;BME280_temperature;BME280_humidity;BME280_pressure;Samples;Min_cycle;Max_cycle;Signal;HPM_P1;HPM_P2
2024/01/18 00:01:40;;;;;;;2.65;1.15;;;;;;;;;;5073547;28;20447;-79
2024/01/18 00:04:11;;;;;;;3.33;1.30;;;;;;;;;;5038753;28;20060;-80
2024/01/18 00:06:41;;;;;;;3.35;1.38;;;;;;;;;;5056447;28;20387;-81
2024/01/18 00:09:11;;;;;;;6.20;1.40;;;;;;;;;;5056548;28;20483;-83
2024/01/18 00:11:41;;;;;;;7.30;1.95;;;;;;;;;;5057446;28;20049;-83
2024/01/18 00:14:12;;;;;;;4.72;1.45;;;;;;;;;;5071033;28;20402;-81
2024/01/18 00:16:42;;;;;;;6.65;2.20;;;;;;;;;;5050753;28;20075;-81
2024/01/18 00:19:12;;;;;;;7.97;1.90;;;;;;;;;;5062728;28;20132;-83
2024/01/18 00:21:43;;;;;;;4.15;1.90;;;;;;;;;;5071056;28;20060;-80
2024/01/18 00:24:13;;;;;;;5.80;1.63;;;;;;;;;;5071297;28;20064;-81
2024/01/18 00:26:44;;;;;;;8.25;1.73;;;;;;;;;;5071671;28;20060;-83
2024/01/18 00:29:14;;;;;;;4.82;1.98;;;;;;;;;;5053737;28;20494;-81
2024/01/18 00:31:44;;;;;;;5.45;1.45;;;;;;;;;;5071815;28;20474;-82
2024/01/18 00:34:15;;;;;;;3.85;1.50;;;;;;;;;;5071035;28;20498;-83
2024/01/18 00:36:47;;;;;;;3.72;1.50;;;;;;;;;;5056189;28;20059;-80
2024/01/18 00:39:20;;;;;;;6.25;1.25;;;;;;;;;;5060956;28;20036;-83
2024/01/18 00:41:50;;;;;;;4.57;1.30;;;;;;;;;;5067383;28;20050;-81
2024/01/18 00:44:20;;;;;;;3.90;1.42;;;;;;;;;;5056507;28;20510;-81
2024/01/18 00:46:52;;;;;;;7.00;1.00;;;;;;;;;;5055073;28;20505;-82
2024/01/18 00:49:23;;;;;;;3.97;1.08;;;;;;;;;;5070227;28;20040;-81
2024/01/18 00:51:53;;;;;;;2.30;1.15;;;;;;;;;;5053077;28;20060;-81
2024/01/18 00:54:23;;;;;;;5.53;1.08;;;;;;;;;;5069026;28;20529;-82
2024/01/18 00:56:54;;;;;;;6.47;0.90;;;;;;;;;;5057681;28;20059;-82
2024/01/18 00:59:26;;;;;;;11.02;1.20;;;;;;;;;;5060095;28;20056;-83
2024/01/18 01:01:57;;;;;;;2.15;0.90;;;;;;;;;;5072766;28;20490;-82
2024/01/18 01:04:27;;;;;;;5.32;0.98;;;;;;;;;;5056733;28;20510;-84
2024/01/18 01:06:58;;;;;;;5.57;0.85;;;;;;;;;;5059077;28;20036;-81
2024/01/18 01:09:29;;;;;;;4.90;0.90;;;;;;;;;;5070642;28;20059;-82
2024/01/18 01:12:00;;;;;;;4.88;1.23;;;;;;;;;;5055956;28;20059;-83
2024/01/18 01:14:30;;;;;;;7.32;1.10;;;;;;;;;;5058962;28;20147;-83
2024/01/18 01:17:01;;;;;;;7.32;1.35;;;;;;;;;;5049510;28;20041;-81
2024/01/18 01:19:32;;;;;;;4.10;1.40;;;;;;;;;;5048869;28;20527;-83
2024/01/18 01:22:03;;;;;;;9.15;1.70;;;;;;;;;;5031212;28;20056;-83
2024/01/18 01:24:38;;;;;;;8.13;1.20;;;;;;;;;;5032286;28;20056;-82
2024/01/18 01:27:09;;;;;;;8.95;1.85;;;;;;;;;;5050462;28;20041;-80
2024/01/18 01:29:39;;;;;;;5.50;2.97;;;;;;;;;;5048529;28;20067;-84
2024/01/18 01:32:09;;;;;;;7.47;3.30;;;;;;;;;;5049730;28;20411;-83
2024/01/18 01:34:39;;;;;;;6.35;3.85;;;;;;;;;;5032637;28;20061;-84
2024/01/18 01:37:09;;;;;;;5.72;3.42;;;;;;;;;;5033074;28;20049;-84
2024/01/18 01:39:40;;;;;;;5.05;3.00;;;;;;;;;;5032964;28;20051;-82
2024/01/18 01:42:11;;;;;;;4.80;2.10;;;;;;;;;;5053239;28;20051;-82
2024/01/18 01:44:42;;;;;;;10.10;2.22;;;;;;;;;;5073028;28;20065;-85
2024/01/18 01:47:13;;;;;;;6.60;2.00;;;;;;;;;;5055394;28;20369;-82
2024/01/18 01:49:45;;;;;;;7.15;1.98;;;;;;;;;;5055531;28;20052;-82
2024/01/18 01:52:16;;;;;;;5.18;2.28;;;;;;;;;;5054166;28;20051;-84
2024/01/18 01:54:48;;;;;;;6.43;1.73;;;;;;;;;;5073173;28;20045;-82
2024/01/18 01:57:20;;;;;;;6.22;1.83;;;;;;;;;;5054650;28;20048;-85
2024/01/18 01:59:51;;;;;;;6.00;2.20;;;;;;;;;;5037749;28;20060;-84
2024/01/18 02:02:23;;;;;;;6.50;1.63;;;;;;;;;;5055732;28;20387;-82
2024/01/18 02:04:55;;;;;;;7.93;2.13;;;;;;;;;;5055697;28;20049;-82
2024/01/18 02:07:28;;;;;;;3.83;1.65;;;;;;;;;;5072746;28;20384;-86
2024/01/18 02:09:59;;;;;;;4.57;1.80;;;;;;;;;;5072910;28;20063;-82
2024/01/18 02:12:32;;;;;;;5.93;2.05;;;;;;;;;;5054410;28;20053;-85
2024/01/18 02:15:05;;;;;;;4.28;1.63;;;;;;;;;;5053694;28;20120;-82
2024/01/18 02:17:35;;;;;;;5.80;1.90;;;;;;;;;;5054481;28;20522;-83
2024/01/18 02:20:06;;;;;;;4.97;1.90;;;;;;;;;;5072623;28;20051;-85
2024/01/18 02:22:44;;;;;;;8.43;2.00;;;;;;;;;;5054773;28;20060;-81
2024/01/18 02:25:18;;;;;;;6.38;1.92;;;;;;;;;;5038490;28;20059;-84
2024/01/18 02:27:49;;;;;;;6.45;1.85;;;;;;;;;;5054350;28;20051;-83
2024/01/18 02:30:19;;;;;;;4.43;2.10;;;;;;;;;;5053851;28;20502;-82
2024/01/18 02:32:49;;;;;;;11.00;2.13;;;;;;;;;;5055335;28;20386;-83
2024/01/18 02:35:21;;;;;;;16.52;3.03;;;;;;;;;;5053567;28;20049;-83
2024/01/18 02:37:51;;;;;;;5.75;1.92;;;;;;;;;;5037425;28;20060;-82
2024/01/18 02:40:23;;;;;;;7.93;1.88;;;;;;;;;;5074579;28;20044;-85
2024/01/18 02:42:55;;;;;;;6.35;2.05;;;;;;;;;;5076096;28;20479;-82
2024/01/18 02:45:26;;;;;;;5.45;1.92;;;;;;;;;;5076620;28;20055;-81
2024/01/18 02:47:57;;;;;;;6.75;1.85;;;;;;;;;;5058092;28;20369;-82
2024/01/18 02:50:28;;;;;;;3.22;1.85;;;;;;;;;;5057847;28;20040;-84
2024/01/18 02:52:59;;;;;;;4.15;1.80;;;;;;;;;;5057766;28;20048;-85
2024/01/18 02:55:29;;;;;;;6.07;2.20;;;;;;;;;;5058497;28;20040;-83
2024/01/18 02:58:01;;;;;;;4.35;2.08;;;;;;;;;;5042080;28;20056;-82
2024/01/18 03:00:32;;;;;;;5.82;1.83;;;;;;;;;;5075449;28;20049;-82
2024/01/18 03:03:03;;;;;;;8.70;2.15;;;;;;;;;;5040972;28;20491;-85
2024/01/18 03:05:34;;;;;;;4.35;1.80;;;;;;;;;;5058099;28;20056;-82
2024/01/18 03:08:05;;;;;;;4.70;1.80;;;;;;;;;;5058398;28;20491;-81
2024/01/18 03:10:36;;;;;;;4.10;1.80;;;;;;;;;;5057311;28;20490;-86
2024/01/18 03:13:07;;;;;;;3.55;1.80;;;;;;;;;;5075429;28;20410;-82
2024/01/18 03:15:37;;;;;;;3.58;1.92;;;;;;;;;;5075660;28;20044;-83
2024/01/18 03:18:07;;;;;;;3.85;1.75;;;;;;;;;;5074533;28;20059;-81
2024/01/18 03:20:39;;;;;;;8.25;2.92;;;;;;;;;;5057370;28;20044;-83
2024/01/18 03:23:09;;;;;;;7.40;2.53;;;;;;;;;;5057800;28;20044;-82
2024/01/18 03:25:40;;;;;;;7.50;2.38;;;;;;;;;;5041210;28;20518;-83
2024/01/18 03:28:10;;;;;;;3.00;1.75;;;;;;;;;;5057230;28;20048;-83
2024/01/18 03:30:40;;;;;;;4.72;2.00;;;;;;;;;;5075421;28;20151;-81
2024/01/18 03:33:11;;;;;;;4.55;1.92;;;;;;;;;;5056658;28;20059;-84
2024/01/18 03:35:42;;;;;;;7.65;2.33;;;;;;;;;;5075431;28;20036;-83
2024/01/18 03:38:12;;;;;;;5.53;1.85;;;;;;;;;;5056495;28;20045;-81
2024/01/18 03:40:42;;;;;;;5.13;2.00;;;;;;;;;;5057330;28;20041;-82
2024/01/18 03:43:12;;;;;;;7.22;2.17;;;;;;;;;;5074967;28;20505;-84
2024/01/18 03:45:43;;;;;;;7.18;1.85;;;;;;;;;;5075416;28;20045;-84
2024/01/18 03:48:13;;;;;;;8.48;1.90;;;;;;;;;;5074872;28;20074;-81
2024/01/18 03:50:43;;;;;;;5.80;1.83;;;;;;;;;;5040611;28;20049;-81
2024/01/18 03:53:13;;;;;;;5.00;1.63;;;;;;;;;;5057099;28;20048;-81
2024/01/18 03:55:43;;;;;;;4.25;2.08;;;;;;;;;;5074718;28;20048;-85
2024/01/18 03:58:13;;;;;;;9.88;1.98;;;;;;;;;;5056320;28;20045;-82
2024/01/18 04:00:44;;;;;;;5.68;1.75;;;;;;;;;;5074190;28;20040;-82
2024/01/18 04:03:15;;;;;;;7.25;1.63;;;;;;;;;;5057895;28;20478;-82
2024/01/18 04:05:45;;;;;;;8.73;1.63;;;;;;;;;;5056712;28;20048;-82
2024/01/18 04:08:17;;;;;;;5.75;1.65;;;;;;;;;;5074776;28;20040;-81
2024/01/18 04:10:47;;;;;;;5.35;1.48;;;;;;;;;;5075256;28;20471;-82
2024/01/18 04:13:18;;;;;;;5.53;1.65;;;;;;;;;;5056920;28;20498;-81
2024/01/18 04:15:48;;;;;;;5.53;1.73;;;;;;;;;;5074269;28;20041;-81
2024/01/18 04:18:18;;;;;;;9.93;1.95;;;;;;;;;;5056095;28;20048;-82
2024/01/18 04:20:52;;;;;;;11.00;1.80;;;;;;;;;;5072898;28;20037;-81
2024/01/18 04:23:23;;;;;;;5.95;1.45;;;;;;;;;;5055817;28;20048;-82
2024/01/18 04:25:53;;;;;;;8.70;1.85;;;;;;;;;;5074221;28;20048;-82
2024/01/18 04:28:24;;;;;;;7.88;2.05;;;;;;;;;;5074407;28;20045;-82
2024/01/18 04:30:55;;;;;;;4.93;1.42;;;;;;;;;;5074496;28;20375;-81
2024/01/18 04:33:24;;;;;;;8.45;1.40;;;;;;;;;;5056858;28;20040;-82
2024/01/18 04:35:55;;;;;;;7.93;1.67;;;;;;;;;;5057007;28;20045;-85
2024/01/18 04:38:25;;;;;;;4.80;1.40;;;;;;;;;;5074412;28;20067;-82
2024/01/18 04:40:56;;;;;;;6.25;1.80;;;;;;;;;;5069377;28;20059;-81
2024/01/18 04:43:26;;;;;;;4.95;1.50;;;;;;;;;;5086676;28;20048;-85
2024/01/18 04:45:56;;;;;;;5.40;1.60;;;;;;;;;;5067762;28;20052;-81
2024/01/18 04:48:26;;;;;;;7.13;1.85;;;;;;;;;;5080372;28;20505;-81
2024/01/18 04:50:57;;;;;;;5.35;1.38;;;;;;;;;;5071421;28;20067;-81
2024/01/18 04:53:28;;;;;;;6.82;1.60;;;;;;;;;;5074052;28;20044;-81
2024/01/18 04:55:59;;;;;;;6.80;2.00;;;;;;;;;;5073963;28;20040;-84
2024/01/18 04:58:32;;;;;;;4.75;1.80;;;;;;;;;;5055337;28;20052;-80
2024/01/18 05:01:03;;;;;;;7.75;2.35;;;;;;;;;;5054930;28;20044;-82
2024/01/18 05:03:33;;;;;;;4.18;1.65;;;;;;;;;;5073474;28;20363;-81
2024/01/18 05:06:05;;;;;;;9.27;2.00;;;;;;;;;;5073688;28;20044;-81
2024/01/18 05:08:37;;;;;;;10.98;1.80;;;;;;;;;;5056419;28;20052;-84
2024/01/18 05:11:08;;;;;;;10.13;1.67;;;;;;;;;;5073510;28;20056;-83
2024/01/18 05:13:39;;;;;;;9.68;1.80;;;;;;;;;;5039007;28;20055;-83
2024/01/18 05:16:10;;;;;;;5.55;1.50;;;;;;;;;;5038863;28;20056;-83
2024/01/18 05:18:41;;;;;;;6.45;1.65;;;;;;;;;;5039247;28;20045;-84
2024/01/18 05:21:11;;;;;;;6.97;1.58;;;;;;;;;;5038228;28;20068;-81
2024/01/18 05:23:41;;;;;;;8.25;1.70;;;;;;;;;;5073295;28;20063;-81
2024/01/18 05:26:11;;;;;;;8.82;2.20;;;;;;;;;;5054238;28;20055;-81
2024/01/18 05:28:41;;;;;;;6.30;1.52;;;;;;;;;;5073738;28;20053;-82
2024/01/18 05:31:12;;;;;;;9.25;1.65;;;;;;;;;;5054448;28;20124;-82
2024/01/18 05:33:42;;;;;;;4.60;1.40;;;;;;;;;;5054637;28;20422;-81
2024/01/18 05:36:12;;;;;;;8.80;1.77;;;;;;;;;;5073067;28;20487;-82
2024/01/18 05:38:42;;;;;;;12.75;1.73;;;;;;;;;;5054564;28;20056;-82
2024/01/18 05:41:12;;;;;;;5.20;1.40;;;;;;;;;;5055089;28;20048;-81
2024/01/18 05:43:42;;;;;;;7.32;1.83;;;;;;;;;;5073717;28;20505;-82
2024/01/18 05:46:13;;;;;;;3.75;1.50;;;;;;;;;;5054653;28;20052;-82
2024/01/18 05:48:42;;;;;;;9.88;1.70;;;;;;;;;;5038235;28;20049;-81
2024/01/18 05:51:13;;;;;;;4.40;1.58;;;;;;;;;;5073318;28;20459;-82
2024/01/18 05:53:43;;;;;;;7.50;1.70;;;;;;;;;;5054992;28;20517;-84
2024/01/18 05:56:15;;;;;;;;;;;;;;;;;;5054326;28;20041;-83
2024/01/18 05:58:45;;;;;;;7.85;1.40;;;;;;;;;;5072460;28;19926;-83
2024/01/18 06:01:15;;;;;;;5.15;1.45;;;;;;;;;;5072942;28;20434;-83
2024/01/18 06:03:45;;;;;;;8.85;1.70;;;;;;;;;;5053662;28;20056;-81
2024/01/18 06:06:16;;;;;;;6.53;1.52;;;;;;;;;;5053883;28;20049;-83
2024/01/18 06:08:46;;;;;;;7.10;1.70;;;;;;;;;;5072582;28;20404;-84
2024/01/18 06:11:19;;;;;;;4.53;1.77;;;;;;;;;;5054127;28;20518;-83
2024/01/18 06:13:49;;;;;;;6.10;1.70;;;;;;;;;;5039363;28;20445;-83
2024/01/18 06:16:19;;;;;;;5.53;1.60;;;;;;;;;;5059764;28;20045;-82
2024/01/18 06:18:50;;;;;;;6.18;1.80;;;;;;;;;;5059421;28;20048;-81
2024/01/18 06:21:21;;;;;;;4.78;1.25;;;;;;;;;;5076650;28;20491;-81
2024/01/18 06:23:52;;;;;;;7.10;1.63;;;;;;;;;;5059541;28;20045;-82
2024/01/18 06:26:22;;;;;;;5.50;1.58;;;;;;;;;;5076576;28;20051;-81
2024/01/18 06:28:52;;;;;;;6.32;1.65;;;;;;;;;;5041641;28;20057;-82
2024/01/18 06:31:26;;;;;;;5.85;1.60;;;;;;;;;;5076791;28;20048;-84
2024/01/18 06:33:56;;;;;;;8.30;2.80;;;;;;;;;;5058448;28;20047;-82
2024/01/18 06:36:26;;;;;;;6.45;1.90;;;;;;;;;;5058825;28;20048;-82
2024/01/18 06:38:57;;;;;;;10.80;1.50;;;;;;;;;;5076778;28;20055;-82
2024/01/18 06:41:28;;;;;;;7.38;1.55;;;;;;;;;;5058112;28;20479;-81
2024/01/18 06:43:57;;;;;;;7.97;1.40;;;;;;;;;;5059095;28;20513;-82
2024/01/18 06:46:29;;;;;;;3.85;1.30;;;;;;;;;;5076531;28;20048;-83
2024/01/18 06:49:02;;;;;;;4.35;1.45;;;;;;;;;;5057806;28;20483;-82
2024/01/18 06:51:33;;;;;;;5.55;1.70;;;;;;;;;;5076003;28;20494;-84
2024/01/18 06:54:03;;;;;;;7.13;1.92;;;;;;;;;;5076262;28;20055;-82
2024/01/18 06:56:33;;;;;;;4.03;1.35;;;;;;;;;;5057733;28;20075;-83
2024/01/18 06:59:05;;;;;;;8.27;1.65;;;;;;;;;;5075839;28;20055;-81
2024/01/18 07:01:36;;;;;;;3.83;1.40;;;;;;;;;;5058782;28;20074;-82
2024/01/18 07:04:06;;;;;;;3.42;1.50;;;;;;;;;;5074749;28;20052;-82
2024/01/18 07:06:36;;;;;;;5.53;1.67;;;;;;;;;;5076083;28;20450;-83
2024/01/18 07:09:08;;;;;;;6.22;1.50;;;;;;;;;;5076036;28;20482;-81
2024/01/18 07:11:39;;;;;;;4.60;1.50;;;;;;;;;;5057453;28;20045;-81
2024/01/18 07:14:09;;;;;;;5.90;2.42;;;;;;;;;;5075947;28;20387;-82
2024/01/18 07:16:39;;;;;;;6.60;1.67;;;;;;;;;;5057673;28;20063;-82
2024/01/18 07:19:09;;;;;;;4.90;1.63;;;;;;;;;;5075543;28;20052;-81
2024/01/18 07:21:40;;;;;;;3.88;1.48;;;;;;;;;;5056817;28;20053;-81
2024/01/18 07:24:10;;;;;;;5.85;1.33;;;;;;;;;;5075564;28;20044;-81
2024/01/18 07:26:41;;;;;;;4.00;1.23;;;;;;;;;;5055305;28;20052;-82
2024/01/18 07:29:11;;;;;;;6.90;2.00;;;;;;;;;;5057993;28;20513;-83
2024/01/18 07:31:41;;;;;;;8.35;1.35;;;;;;;;;;5056518;28;20491;-83
2024/01/18 07:34:16;;;;;;;9.43;2.10;;;;;;;;;;5075439;28;20039;-84
2024/01/18 07:36:46;;;;;;;9.80;1.50;;;;;;;;;;5040906;28;20051;-84
2024/01/18 07:39:17;;;;;;;6.20;1.85;;;;;;;;;;5075441;28;20040;-83
2024/01/18 07:41:48;;;;;;;6.75;1.55;;;;;;;;;;5056380;28;20048;-84
2024/01/18 07:44:18;;;;;;;5.38;1.33;;;;;;;;;;5056714;28;20048;-82
2024/01/18 07:46:50;;;;;;;7.90;1.48;;;;;;;;;;5055869;28;20053;-84
2024/01/18 07:49:21;;;;;;;4.70;1.92;;;;;;;;;;5056858;28;20067;-82
2024/01/18 07:51:52;;;;;;;8.40;1.70;;;;;;;;;;5057541;28;20175;-81
2024/01/18 07:54:22;;;;;;;7.25;1.77;;;;;;;;;;5057779;28;20048;-82
2024/01/18 07:56:52;;;;;;;3.13;1.30;;;;;;;;;;5075215;28;20044;-82
2024/01/18 07:59:22;;;;;;;6.68;1.80;;;;;;;;;;5075000;28;20056;-82
2024/01/18 08:01:52;;;;;;;5.80;1.60;;;;;;;;;;5057166;28;20067;-83
2024/01/18 08:04:22;;;;;;;8.88;1.67;;;;;;;;;;5072860;28;20056;-83
2024/01/18 08:06:53;;;;;;;6.65;1.95;;;;;;;;;;5075212;28;20067;-81
2024/01/18 08:09:28;;;;;;;7.65;1.70;;;;;;;;;;5056581;28;20048;-81
2024/01/18 08:11:59;;;;;;;7.85;1.85;;;;;;;;;;5039542;28;20048;-83
2024/01/18 08:14:30;;;;;;;4.38;1.83;;;;;;;;;;5055925;28;20380;-83
2024/01/18 08:17:00;;;;;;;6.90;1.77;;;;;;;;;;5074664;28;20033;-84
2024/01/18 08:19:33;;;;;;;4.70;1.67;;;;;;;;;;5074744;28;20044;-82
2024/01/18 08:22:04;;;;;;;8.15;1.45;;;;;;;;;;5055080;28;20043;-82
2024/01/18 08:24:34;;;;;;;6.25;1.80;;;;;;;;;;5073211;28;20383;-82
2024/01/18 08:27:04;;;;;;;4.38;1.80;;;;;;;;;;5056833;28;20049;-83
2024/01/18 08:29:34;;;;;;;4.57;1.30;;;;;;;;;;5063919;28;20052;-82
2024/01/18 08:32:05;;;;;;;2.90;1.60;;;;;;;;;;5066064;28;20059;-83
2024/01/18 08:34:35;;;;;;;5.07;1.58;;;;;;;;;;5074464;28;20051;-82
2024/01/18 08:37:06;;;;;;;4.07;1.70;;;;;;;;;;5070882;28;20048;-82
2024/01/18 08:39:36;;;;;;;4.57;1.65;;;;;;;;;;5072608;28;20056;-81
2024/01/18 08:42:08;;;;;;;5.32;1.67;;;;;;;;;;5072765;28;20068;-81
2024/01/18 08:44:39;;;;;;;7.57;1.73;;;;;;;;;;5072050;28;20048;-81
2024/01/18 08:47:10;;;;;;;5.03;1.70;;;;;;;;;;5072606;28;20104;-82
2024/01/18 08:49:40;;;;;;;4.75;1.67;;;;;;;;;;5073485;28;20051;-81
2024/01/18 08:52:10;;;;;;;5.60;1.80;;;;;;;;;;5073030;28;20044;-82
2024/01/18 08:54:42;;;;;;;4.18;1.70;;;;;;;;;;5073815;28;20048;-84
2024/01/18 08:57:13;;;;;;;;;;;;;;;;;;5055915;28;20087;-81
2024/01/18 08:59:46;;;;;;;5.25;1.50;;;;;;;;;;5084137;28;19920;-81
2024/01/18 09:02:17;;;;;;;2.80;1.55;;;;;;;;;;5066987;28;20402;-83
2024/01/18 09:04:52;;;;;;;5.18;1.73;;;;;;;;;;5080645;28;20039;-82
2024/01/18 09:07:23;;;;;;;6.32;1.80;;;;;;;;;;5055546;28;20044;-84
2024/01/18 09:09:54;;;;;;;5.25;1.90;;;;;;;;;;5064365;28;20048;-84
2024/01/18 09:12:25;;;;;;;5.10;1.65;;;;;;;;;;5083401;28;20033;-83
2024/01/18 09:14:56;;;;;;;;;;;;;;;;;;5083126;28;20036;-82
2024/01/18 09:17:27;;;;;;;4.85;1.33;;;;;;;;;;5059483;28;19924;-83
2024/01/18 09:19:57;;;;;;;6.28;2.05;;;;;;;;;;5038585;28;20494;-82
2024/01/18 09:22:27;;;;;;;5.18;1.80;;;;;;;;;;5073595;28;20055;-82
2024/01/18 09:24:57;;;;;;;13.15;1.85;;;;;;;;;;5073404;28;20048;-81
2024/01/18 09:27:28;;;;;;;6.75;1.65;;;;;;;;;;5073516;28;20410;-83
2024/01/18 09:29:58;;;;;;;5.03;1.67;;;;;;;;;;5038592;28;20483;-85
2024/01/18 09:32:30;;;;;;;8.35;1.77;;;;;;;;;;5065770;28;20044;-81
2024/01/18 09:35:01;;;;;;;5.03;2.10;;;;;;;;;;5073479;28;20040;-81
2024/01/18 09:37:32;;;;;;;5.05;1.70;;;;;;;;;;5065380;28;20037;-82
2024/01/18 09:40:04;;;;;;;13.05;2.10;;;;;;;;;;5072876;28;20040;-83
2024/01/18 09:42:37;;;;;;;5.63;1.63;;;;;;;;;;5055974;28;20052;-81
2024/01/18 09:45:12;;;;;;;7.13;1.83;;;;;;;;;;5077685;28;20036;-81
2024/01/18 09:47:43;;;;;;;7.90;2.13;;;;;;;;;;5075728;28;20494;-81
2024/01/18 09:50:18;;;;;;;14.65;3.10;;;;;;;;;;5056372;28;20044;-81
2024/01/18 09:52:50;;;;;;;17.15;2.90;;;;;;;;;;5076411;28;20043;-81
2024/01/18 09:55:20;;;;;;;10.00;3.05;;;;;;;;;;5085222;28;20043;-80
2024/01/18 09:57:55;;;;;;;9.38;2.40;;;;;;;;;;5082040;28;20036;-80
2024/01/18 10:00:30;;;;;;;11.55;2.60;;;;;;;;;;5052599;28;20064;-81
2024/01/18 10:03:00;;;;;;;5.70;1.80;;;;;;;;;;5060630;28;20040;-84
2024/01/18 10:05:31;;;;;;;6.40;2.20;;;;;;;;;;5073254;28;20040;-82
2024/01/18 10:08:03;;;;;;;9.93;2.30;;;;;;;;;;5072191;28;20068;-82
2024/01/18 10:10:33;;;;;;;;;;;;;;;;;;5072935;28;20422;-82
2024/01/18 10:13:03;;;;;;;9.10;3.00;;;;;;;;;;5072841;28;19920;-82
2024/01/18 10:15:35;;;;;;;9.35;2.92;;;;;;;;;;5054237;28;20044;-82
2024/01/18 10:18:07;;;;;;;6.93;2.40;;;;;;;;;;5054036;28;20482;-80
2024/01/18 10:20:38;;;;;;;9.38;2.25;;;;;;;;;;5054841;28;20044;-82
2024/01/18 10:23:10;;;;;;;7.75;2.15;;;;;;;;;;5038203;28;20080;-80
2024/01/18 10:25:40;;;;;;;;;;;;;;;;;;5073188;28;20411;-79
2024/01/18 10:28:11;;;;;;;7.03;2.20;;;;;;;;;;5072562;28;19927;-81
2024/01/18 10:30:41;;;;;;;5.95;1.77;;;;;;;;;;5073347;28;20344;-79
2024/01/18 10:33:12;;;;;;;9.57;2.15;;;;;;;;;;5054093;28;20053;-80
2024/01/18 10:35:44;;;;;;;8.13;2.00;;;;;;;;;;5054165;28;20592;-81
2024/01/18 10:38:16;;;;;;;6.10;2.13;;;;;;;;;;5072697;28;20091;-83
2024/01/18 10:40:50;;;;;;;4.57;1.77;;;;;;;;;;5072554;28;20044;-81
2024/01/18 10:43:21;;;;;;;4.57;1.73;;;;;;;;;;5037833;28;20511;-83
2024/01/18 10:45:52;;;;;;;8.57;1.80;;;;;;;;;;5071364;28;20056;-81
2024/01/18 10:48:22;;;;;;;4.55;1.60;;;;;;;;;;5071410;28;20032;-82
2024/01/18 10:50:58;;;;;;;6.03;1.88;;;;;;;;;;5071580;28;20036;-81
2024/01/18 10:53:31;;;;;;;6.82;1.65;;;;;;;;;;5057367;28;20049;-82
2024/01/18 10:56:02;;;;;;;3.72;1.52;;;;;;;;;;5070575;28;20048;-81
2024/01/18 10:58:33;;;;;;;4.38;1.42;;;;;;;;;;5071513;28;20045;-81
2024/01/18 11:01:03;;;;;;;7.80;1.70;;;;;;;;;;5072869;28;20079;-81
2024/01/18 11:03:36;;;;;;;5.30;1.30;;;;;;;;;;5074560;28;20541;-81
2024/01/18 11:06:09;;;;;;;4.82;1.38;;;;;;;;;;5075212;28;20259;-80
2024/01/18 11:08:41;;;;;;;3.42;1.50;;;;;;;;;;5075089;28;20048;-83
2024/01/18 11:11:12;;;;;;;4.45;1.10;;;;;;;;;;5056438;28;20052;-82
2024/01/18 11:13:43;;;;;;;6.65;1.48;;;;;;;;;;5075020;28;20047;-80
2024/01/18 11:16:13;;;;;;;6.30;1.30;;;;;;;;;;5051291;28;20060;-80
2024/01/18 11:18:50;;;;;;;9.60;1.30;;;;;;;;;;5066408;28;20053;-80
2024/01/18 11:21:27;;;;;;;1.95;0.93;;;;;;;;;;5073592;28;20040;-79
2024/01/18 11:24:04;;;;;;;3.55;1.02;;;;;;;;;;5062398;28;20048;-81
2024/01/18 11:26:35;;;;;;;3.10;1.33;;;;;;;;;;5068757;28;20041;-85
2024/01/18 11:29:26;;;;;;;2.75;1.10;;;;;;;;;;5081757;28;20060;-81
2024/01/18 11:31:57;;;;;;;3.63;0.95;;;;;;;;;;5054654;28;20053;-81
2024/01/18 11:34:55;;;;;;;4.88;1.30;;;;;;;;;;5073325;28;20507;-81
2024/01/18 11:37:26;;;;;;;3.60;1.42;;;;;;;;;;5067633;28;20053;-80
2024/01/18 11:39:58;;;;;;;2.72;1.20;;;;;;;;;;5073034;28;20052;-81
2024/01/18 11:42:30;;;;;;;1.92;1.13;;;;;;;;;;5054592;28;20780;-83
2024/01/18 11:45:09;;;;;;;1.83;0.88;;;;;;;;;;5053948;28;20075;-81
2024/01/18 11:47:40;;;;;;;3.85;1.10;;;;;;;;;;5055335;28;20041;-83
2024/01/18 11:50:13;;;;;;;1.73;0.90;;;;;;;;;;5070761;28;20565;-81
2024/01/18 11:52:44;;;;;;;2.88;0.90;;;;;;;;;;5072809;28;20045;-83
2024/01/18 11:55:17;;;;;;;1.40;0.90;;;;;;;;;;5072393;28;20071;-82
2024/01/18 11:57:48;;;;;;;3.85;0.90;;;;;;;;;;5072440;28;20040;-84
2024/01/18 12:00:20;;;;;;;1.35;0.93;;;;;;;;;;5072342;28;20044;-80
2024/01/18 12:02:51;;;;;;;3.90;0.95;;;;;;;;;;5072890;28;20048;-82
2024/01/18 12:05:25;;;;;;;3.15;1.00;;;;;;;;;;5055279;28;20057;-81
2024/01/18 12:07:56;;;;;;;2.83;1.33;;;;;;;;;;5071692;28;20067;-79
2024/01/18 12:10:29;;;;;;;2.05;0.98;;;;;;;;;;5072239;28;20067;-81
2024/01/18 12:13:03;;;;;;;2.13;1.00;;;;;;;;;;5072668;28;20098;-81
2024/01/18 12:15:34;;;;;;;2.70;1.25;;;;;;;;;;5072441;28;20053;-83
2024/01/18 12:18:05;;;;;;;5.05;1.23;;;;;;;;;;5072304;28;20518;-83
2024/01/18 12:20:35;;;;;;;1.85;0.95;;;;;;;;;;5072390;28;20458;-83
2024/01/18 12:23:16;;;;;;;4.25;1.27;;;;;;;;;;5037296;28;20422;-82
2024/01/18 12:25:48;;;;;;;2.45;1.10;;;;;;;;;;5072067;28;20490;-83
2024/01/18 12:28:19;;;;;;;2.40;1.02;;;;;;;;;;5053911;28;20056;-84
2024/01/18 12:30:49;;;;;;;2.25;0.88;;;;;;;;;;5037553;28;20048;-84
2024/01/18 12:33:19;;;;;;;4.32;1.00;;;;;;;;;;5053275;28;20052;-85
2024/01/18 12:35:51;;;;;;;4.35;1.98;;;;;;;;;;5051908;28;20048;-87
2024/01/18 12:38:23;;;;;;;6.13;0.95;;;;;;;;;;5054058;28;20490;-85
2024/01/18 12:40:53;;;;;;;2.55;0.93;;;;;;;;;;5069846;28;20063;-86
2024/01/18 12:43:23;;;;;;;3.47;1.27;;;;;;;;;;5054337;28;20052;-84
2024/01/18 12:45:53;;;;;;;1.60;0.88;;;;;;;;;;5053971;28;20045;-86
2024/01/18 12:48:24;;;;;;;2.20;1.50;;;;;;;;;;5054096;28;20059;-85
2024/01/18 12:50:55;;;;;;;2.53;1.00;;;;;;;;;;5071884;28;20051;-90
2024/01/18 12:53:26;;;;;;;4.18;1.13;;;;;;;;;;5053489;28;20056;-86
2024/01/18 12:55:56;;;;;;;2.10;1.10;;;;;;;;;;5036397;28;20051;-86
2024/01/18 12:58:30;;;;;;;2.55;0.93;;;;;;;;;;5071322;28;20052;-84
2024/01/18 13:01:01;;;;;;;2.25;1.40;;;;;;;;;;5036784;28;20051;-85
2024/01/18 13:03:40;;;;;;;2.85;1.02;;;;;;;;;;5055110;28;20056;-84
2024/01/18 13:06:11;;;;;;;1.85;0.85;;;;;;;;;;5052712;28;20048;-86
2024/01/18 13:08:41;;;;;;;;;;;;;;;;;;5071720;28;20063;-86
2024/01/18 13:11:13;;;;;;;4.07;1.00;;;;;;;;;;5036470;28;19920;-86
2024/01/18 13:13:44;;;;;;;3.17;0.88;;;;;;;;;;5070893;28;20045;-86
2024/01/18 13:16:15;;;;;;;4.05;0.75;;;;;;;;;;5053066;28;20060;-86
2024/01/18 13:18:46;;;;;;;3.70;1.10;;;;;;;;;;5071077;28;20071;-85
2024/01/18 13:21:17;;;;;;;2.60;1.17;;;;;;;;;;5052929;28;20056;-84
2024/01/18 13:23:48;;;;;;;3.72;1.08;;;;;;;;;;5051822;28;20052;-85
2024/01/18 13:26:20;;;;;;;4.57;1.10;;;;;;;;;;5052414;28;20052;-86
2024/01/18 13:28:51;;;;;;;2.28;1.13;;;;;;;;;;5036726;28;20055;-87
2024/01/18 13:31:23;;;;;;;8.63;1.20;;;;;;;;;;5051916;28;20045;-83
2024/01/18 13:33:53;;;;;;;3.38;1.02;;;;;;;;;;5070465;28;20059;-82
2024/01/18 13:36:24;;;;;;;2.30;0.88;;;;;;;;;;5052026;28;20056;-85
2024/01/18 13:38:54;;;;;;;1.30;0.88;;;;;;;;;;5070680;28;20067;-86
2024/01/18 13:41:26;;;;;;;1.45;1.05;;;;;;;;;;5052493;28;20060;-84
2024/01/18 13:43:56;;;;;;;2.28;0.93;;;;;;;;;;5035981;28;20052;-83
2024/01/18 13:46:26;;;;;;;4.07;1.20;;;;;;;;;;5053051;28;20495;-83
2024/01/18 13:48:56;;;;;;;1.88;1.17;;;;;;;;;;5070855;28;20063;-86
2024/01/18 13:51:26;;;;;;;5.00;0.90;;;;;;;;;;5070851;28;20044;-86
2024/01/18 13:53:57;;;;;;;2.83;1.25;;;;;;;;;;5051990;28;20057;-89
2024/01/18 13:56:27;;;;;;;5.07;1.50;;;;;;;;;;5051899;28;20053;-84
2024/01/18 13:58:57;;;;;;;3.08;1.40;;;;;;;;;;5051951;28;20060;-85
2024/01/18 14:01:28;;;;;;;2.78;1.45;;;;;;;;;;5050599;28;20049;-85
2024/01/18 14:03:58;;;;;;;2.00;1.13;;;;;;;;;;5050342;28;20077;-85
2024/01/18 14:06:29;;;;;;;3.72;1.23;;;;;;;;;;5049258;28;20071;-87
2024/01/18 14:09:04;;;;;;;4.97;1.40;;;;;;;;;;5047737;28;20060;-87
2024/01/18 14:11:34;;;;;;;2.92;1.27;;;;;;;;;;5047497;28;20052;-88
2024/01/18 14:14:05;;;;;;;2.17;1.23;;;;;;;;;;5039876;28;20156;-85
2024/01/18 14:16:36;;;;;;;2.30;1.40;;;;;;;;;;5012995;28;20065;-82
2024/01/18 14:19:09;;;;;;;2.28;1.45;;;;;;;;;;5045388;28;20050;-83
2024/01/18 14:21:39;;;;;;;1.73;1.02;;;;;;;;;;5011693;28;20057;-83
2024/01/18 14:24:09;;;;;;;3.50;1.33;;;;;;;;;;5030239;28;20464;-84
2024/01/18 14:26:39;;;;;;;3.65;1.58;;;;;;;;;;5030208;28;20049;-89
2024/01/18 14:29:11;;;;;;;2.75;1.13;;;;;;;;;;5011329;28;20053;-83
2024/01/18 14:31:41;;;;;;;3.15;1.13;;;;;;;;;;5019717;28;20045;-83
2024/01/18 14:34:12;;;;;;;;;;;;;;;;;;5048391;28;20044;-85
2024/01/18 14:36:42;;;;;;;1.98;1.30;;;;;;;;;;5052955;28;19921;-84
2024/01/18 14:39:15;;;;;;;2.13;1.27;;;;;;;;;;5057517;28;20056;-87
2024/01/18 14:41:46;;;;;;;3.35;1.25;;;;;;;;;;5056241;28;20056;-85
2024/01/18 14:44:17;;;;;;;1.58;1.15;;;;;;;;;;5070140;28;20442;-85
2024/01/18 14:46:48;;;;;;;3.58;1.30;;;;;;;;;;5074592;28;20056;-86
2024/01/18 14:49:19;;;;;;;3.47;1.17;;;;;;;;;;5072361;28;20530;-88
2024/01/18 14:51:50;;;;;;;1.77;1.15;;;;;;;;;;5075373;28;20518;-84
2024/01/18 14:54:21;;;;;;;4.28;1.23;;;;;;;;;;5074273;28;20051;-83
2024/01/18 14:56:52;;;;;;;2.40;1.35;;;;;;;;;;5073392;28;20426;-85
2024/01/18 14:59:23;;;;;;;4.10;1.25;;;;;;;;;;5075379;28;20055;-85
2024/01/18 15:01:54;;;;;;;;;;;;;;;;;;5078773;28;20123;-87
2024/01/18 15:04:24;;;;;;;2.38;1.20;;;;;;;;;;5077437;28;19920;-81
2024/01/18 15:06:55;;;;;;;4.30;1.48;;;;;;;;;;5057168;28;20049;-87
2024/01/18 15:09:25;;;;;;;2.50;1.40;;;;;;;;;;5075868;28;20068;-84